Time;durP1;ratioP1;P1;durP2;ratioP2;P2;SDS_P1;SDS_P2;PMS_P1;PMS_P2;Temp;Humidity;BMP_temperature;BMP_pressure;BME280_temperature;BME280_humidity;BME280_pressure;Samples;Min_cycle;Max_cycle;Signal;HPM_P1;HPM_P2
2023/12/31 00:01:56;;;;;;;;;;;;;;;17.23;36.68;95296.09;10454079;28;2011;-60
2023/12/31 00:06:56;;;;;;;;;;;;;;;17.22;36.67;95284.06;10444614;28;2220;-60
2023/12/31 00:11:56;;;;;;;;;;;;;;;17.21;36.60;95277.22;10449230;28;1954;-60
2023/12/31 00:16:56;;;;;;;;;;;;;;;17.22;36.81;95278.81;10453175;28;1994;-60
2023/12/31 00:21:57;;;;;;;;;;;;;;;17.20;36.72;95269.63;10448805;28;1997;-60
2023/12/31 00:26:57;;;;;;;;;;;;;;;17.21;36.60;95266.00;10455658;28;1912;-60
2023/12/31 00:31:58;;;;;;;;;;;;;;;17.19;36.56;95258.38;10452886;28;2096;-60
2023/12/31 00:36:58;;;;;;;;;;;;;;;17.20;36.58;95253.94;10458081;28;1907;-60
2023/12/31 00:41:58;;;;;;;;;;;;;;;17.19;36.61;95252.38;10464841;28;2031;-60
2023/12/31 00:46:58;;;;;;;;;;;;;;;17.19;36.63;95258.38;10461618;28;1984;-60
2023/12/31 00:51:59;;;;;;;;;;;;;;;17.18;36.59;95254.19;10461286;28;2041;-60
2023/12/31 00:56:59;;;;;;;;;;;;;;;17.17;36.60;95250.00;10459750;28;2129;-60
2023/12/31 01:01:59;;;;;;;;;;;;;;;17.17;36.53;95244.75;10457474;28;1978;-60
2023/12/31 01:07:00;;;;;;;;;;;;;;;17.17;36.52;95249.19;10466107;28;2716;-61
2023/12/31 01:12:00;;;;;;;;;;;;;;;17.15;36.56;95241.63;10458252;28;2124;-60
2023/12/31 01:17:00;;;;;;;;;;;;;;;17.16;36.52;95245.03;10458181;28;1958;-60
2023/12/31 01:22:00;;;;;;;;;;;;;;;17.15;36.49;95225.91;10456332;28;2063;-60
2023/12/31 01:27:01;;;;;;;;;;;;;;;17.15;36.53;95218.03;10453606;28;2176;-60
2023/12/31 01:32:01;;;;;;;;;;;;;;;17.14;36.51;95210.47;10462431;28;2200;-60
2023/12/31 01:37:03;;;;;;;;;;;;;;;17.14;36.56;95206.00;10460907;28;2056;-60
2023/12/31 01:42:03;;;;;;;;;;;;;;;17.13;36.47;95201.81;10460108;28;1917;-60
2023/12/31 01:47:03;;;;;;;;;;;;;;;17.14;36.43;95189.50;10438894;28;2448;-60
2023/12/31 01:52:04;;;;;;;;;;;;;;;17.12;36.50;95181.94;10451983;28;2121;-60
2023/12/31 01:57:04;;;;;;;;;;;;;;;17.12;36.35;95176.69;10434291;28;2257;-60
2023/12/31 02:02:07;;;;;;;;;;;;;;;17.11;36.39;95177.72;10462959;28;2272;-60
2023/12/31 02:07:07;;;;;;;;;;;;;;;17.10;36.34;95170.94;10446664;28;2350;-60
2023/12/31 02:12:08;;;;;;;;;;;;;;;17.10;36.29;95166.47;10458186;28;2093;-60
2023/12/31 02:17:08;;;;;;;;;;;;;;;17.09;36.36;95159.66;10457572;28;1973;-60
2023/12/31 02:22:08;;;;;;;;;;;;;;;17.08;36.37;95147.59;10459448;28;2112;-62
2023/12/31 02:27:08;;;;;;;;;;;;;;;17.08;36.11;95142.38;10457179;28;2051;-60
2023/12/31 02:32:09;;;;;;;;;;;;;;;17.08;36.27;95141.59;10454520;28;2116;-60
2023/12/31 02:37:09;;;;;;;;;;;;;;;17.07;36.20;95135.59;10453448;28;2276;-60
2023/12/31 02:42:09;;;;;;;;;;;;;;;17.07;36.25;95135.59;10454212;28;2136;-60
2023/12/31 02:47:11;;;;;;;;;;;;;;;17.06;36.22;95125.38;10454483;28;2052;-59
2023/12/31 02:52:11;;;;;;;;;;;;;;;17.05;36.29;95119.34;10433440;28;2417;-60
2023/12/31 02:57:14;;;;;;;;;;;;;;;17.06;36.14;95125.38;10451829;28;1936;-60
2023/12/31 03:02:14;;;;;;;;;;;;;;;17.05;36.22;95102.84;10456025;28;2114;-60
2023/12/31 03:07:14;;;;;;;;;;;;;;;17.03;36.26;95090.03;10458652;28;2065;-60
2023/12/31 03:12:14;;;;;;;;;;;;;;;17.04;36.18;95093.44;10455670;28;2148;-60
2023/12/31 03:17:15;;;;;;;;;;;;;;;17.03;36.16;95084.00;10457449;28;2116;-60
2023/12/31 03:22:15;;;;;;;;;;;;;;;17.02;36.26;95079.84;10448629;28;2033;-60
2023/12/31 03:27:15;;;;;;;;;;;;;;;17.01;36.14;95068.56;10451077;28;2016;-60
2023/12/31 03:32:15;;;;;;;;;;;;;;;17.01;36.25;95065.94;10454970;28;1925;-60
2023/12/31 03:37:16;;;;;;;;;;;;;;;17.01;36.20;95049.44;10448475;28;2176;-60
2023/12/31 03:42:16;;;;;;;;;;;;;;;17.00;36.13;95047.91;10456001;28;1962;-59
2023/12/31 03:47:16;;;;;;;;;;;;;;;17.00;36.11;95046.03;10452625;28;2173;-60
2023/12/31 03:52:17;;;;;;;;;;;;;;;16.98;35.99;95036.91;10453543;28;1985;-60
2023/12/31 03:57:17;;;;;;;;;;;;;;;16.98;36.08;95039.53;10458394;28;1936;-59
2023/12/31 04:02:17;;;;;;;;;;;;;;;16.98;36.13;95039.53;10451947;28;2045;-58
2023/12/31 04:07:17;;;;;;;;;;;;;;;16.97;36.02;95033.50;10457460;28;2163;-60
2023/12/31 04:12:18;;;;;;;;;;;;;;;16.96;36.07;95025.94;10462983;28;1936;-58
2023/12/31 04:17:21;;;;;;;;;;;;;;;16.96;36.08;95031.16;10462948;28;2078;-59
2023/12/31 04:22:23;;;;;;;;;;;;;;;16.95;36.08;95026.97;10459689;28;1937;-59
2023/12/31 04:27:23;;;;;;;;;;;;;;;16.94;36.01;95023.56;10461839;28;1957;-60
2023/12/31 04:32:25;;;;;;;;;;;;;;;16.93;36.00;95015.97;10459896;28;2094;-59
2023/12/31 04:37:25;;;;;;;;;;;;;;;16.93;36.03;95008.91;10454841;28;1997;-59
2023/12/31 04:42:25;;;;;;;;;;;;;;;16.93;36.04;94992.41;10462341;28;2073;-60
2023/12/31 04:47:25;;;;;;;;;;;;;;;16.92;36.20;94980.38;10461295;28;2102;-60
2023/12/31 04:52:26;;;;;;;;;;;;;;;16.92;36.07;94969.88;10462869;28;1902;-60
2023/12/31 04:57:26;;;;;;;;;;;;;;;16.90;36.06;94956.28;10456748;28;1918;-60
2023/12/31 05:02:27;;;;;;;;;;;;;;;16.90;36.10;94944.00;10449043;28;2386;-60
2023/12/31 05:07:27;;;;;;;;;;;;;;;16.89;36.14;94941.66;10460736;28;1918;-60
2023/12/31 05:12:27;;;;;;;;;;;;;;;16.89;36.00;94933.78;10456886;28;1914;-60
2023/12/31 05:17:27;;;;;;;;;;;;;;;16.89;36.00;94933.78;10462420;28;2099;-60
2023/12/31 05:22:28;;;;;;;;;;;;;;;16.88;35.96;94934.84;10455624;28;2030;-59
2023/12/31 05:27:28;;;;;;;;;;;;;;;16.86;35.99;94924.63;10460403;28;2196;-59
2023/12/31 05:32:29;;;;;;;;;;;;;;;16.86;35.97;94919.41;10461247;28;2049;-60
2023/12/31 05:37:29;;;;;;;;;;;;;;;16.86;36.00;94918.63;10459834;28;2112;-60
2023/12/31 05:42:31;;;;;;;;;;;;;;;16.85;36.01;94919.69;10456588;28;2156;-60
2023/12/31 05:47:31;;;;;;;;;;;;;;;16.83;36.02;94914.72;10456252;28;2010;-60
2023/12/31 05:52:32;;;;;;;;;;;;;;;16.84;36.01;94913.66;10458553;28;1958;-60
2023/12/31 05:57:32;;;;;;;;;;;;;;;16.84;35.93;94911.03;10455607;28;2251;-60
2023/12/31 06:02:32;;;;;;;;;;;;;;;16.81;36.02;94906.34;10458805;28;2002;-60
2023/12/31 06:07:32;;;;;;;;;;;;;;;16.82;35.83;94907.91;10452356;28;2008;-59
2023/12/31 06:12:33;;;;;;;;;;;;;;;16.81;36.00;94895.09;10454327;28;2027;-61
2023/12/31 06:17:33;;;;;;;;;;;;;;;16.80;35.97;94889.06;10453130;28;2005;-60
2023/12/31 06:22:35;;;;;;;;;;;;;;;16.81;35.99;94895.09;10455200;28;2228;-60
2023/12/31 06:27:36;;;;;;;;;;;;;;;16.80;35.95;94898.75;10449259;28;2145;-60
2023/12/31 06:32:37;;;;;;;;;;;;;;;16.80;36.01;94890.91;10444564;28;2015;-60
2023/12/31 06:37:37;;;;;;;;;;;;;;;16.80;35.92;94880.44;10446369;28;1979;-60
2023/12/31 06:42:37;;;;;;;;;;;;;;;16.79;35.85;94868.41;10451109;28;2099;-61
2023/12/31 06:47:38;;;;;;;;;;;;;;;16.77;35.98;94863.47;10448209;28;2032;-60
2023/12/31 06:52:38;;;;;;;;;;;;;;;16.77;35.91;94863.47;10447274;28;2037;-59
2023/12/31 06:57:38;;;;;;;;;;;;;;;16.78;35.87;94859.00;10450073;28;1993;-60
2023/12/31 07:02:39;;;;;;;;;;;;;;;16.77;35.91;94836.50;10446751;28;1993;-61
2023/12/31 07:07:40;;;;;;;;;;;;;;;16.77;35.95;94831.28;10455151;28;2002;-59
2023/12/31 07:12:40;;;;;;;;;;;;;;;16.76;35.88;94819.22;10447289;28;1914;-61
2023/12/31 07:17:41;;;;;;;;;;;;;;;16.76;35.86;94808.75;10445083;28;2105;-61
2023/12/31 07:22:41;;;;;;;;;;;;;;;16.74;35.93;94803.00;10432986;28;2128;-60
2023/12/31 07:27:41;;;;;;;;;;;;;;;16.75;35.95;94796.75;10433705;28;2005;-60
2023/12/31 07:32:41;;;;;;;;;;;;;;;16.74;35.81;94784.69;10445526;28;2044;-60
2023/12/31 07:37:42;;;;;;;;;;;;;;;16.73;35.84;94783.91;10445792;28;1891;-60
2023/12/31 07:42:42;;;;;;;;;;;;;;;16.73;35.74;94775.28;10443428;28;2049;-61
2023/12/31 07:47:42;;;;;;;;;;;;;;;16.73;35.85;94778.66;10447797;28;1951;-60
2023/12/31 07:52:43;;;;;;;;;;;;;;;16.73;35.80;94783.16;10450830;28;2012;-61
2023/12/31 07:57:43;;;;;;;;;;;;;;;16.71;35.76;94796.47;10447932;28;1998;-60
2023/12/31 08:02:43;;;;;;;;;;;;;;;16.70;35.75;94800.16;10446116;28;1931;-60
2023/12/31 08:07:43;;;;;;;;;;;;;;;16.70;35.76;94802.00;10449816;28;2116;-61
2023/12/31 08:12:44;;;;;;;;;;;;;;;16.70;35.82;94794.13;10450580;28;1977;-60
2023/12/31 08:17:44;;;;;;;;;;;;;;;16.69;35.80;94798.59;10447645;28;2023;-60
2023/12/31 08:22:44;;;;;;;;;;;;;;;16.70;35.90;94799.38;10440665;28;2119;-60
2023/12/31 08:27:45;;;;;;;;;;;;;;;16.68;35.71;94802.28;10450406;28;2060;-61
2023/12/31 08:32:45;;;;;;;;;;;;;;;16.67;35.93;94800.69;10441379;28;2195;-60
2023/12/31 08:37:47;;;;;;;;;;;;;;;16.67;36.03;94798.06;10453748;28;1969;-60
2023/12/31 08:42:47;;;;;;;;;;;;;;;16.66;35.89;94807.00;10450605;28;1978;-59
2023/12/31 08:47:47;;;;;;;;;;;;;;;16.68;36.03;94811.94;10447955;28;7641;-59
2023/12/31 08:52:47;;;;;;;;;;;;;;;16.65;36.11;94812.50;10447880;28;5366;-59
2023/12/31 08:57:48;;;;;;;;;;;;;;;16.67;36.10;94799.94;10449421;28;5441;-59
2023/12/31 09:02:48;;;;;;;;;;;;;;;16.67;36.03;94810.41;10440529;28;1921;-59
2023/12/31 09:07:48;;;;;;;;;;;;;;;16.66;36.14;94809.59;10458205;28;5499;-59
2023/12/31 09:12:49;;;;;;;;;;;;;;;16.66;36.27;94801.75;10450149;28;1953;-59
2023/12/31 09:17:49;;;;;;;;;;;;;;;16.67;36.52;94797.31;10453932;28;2040;-60
2023/12/31 09:22:52;;;;;;;;;;;;;;;16.65;36.41;94800.19;10451406;28;5039;-59
2023/12/31 09:27:53;;;;;;;;;;;;;;;16.66;36.37;94798.34;10453602;28;1992;-59
2023/12/31 09:32:53;;;;;;;;;;;;;;;16.65;36.51;94800.19;10451321;28;2340;-59
2023/12/31 09:37:53;;;;;;;;;;;;;;;16.64;36.45;94808.31;10461865;28;2009;-60
2023/12/31 09:42:53;;;;;;;;;;;;;;;16.64;36.37;94803.06;10453053;28;2056;-59
2023/12/31 09:47:54;;;;;;;;;;;;;;;16.64;36.36;94800.47;10451672;28;1978;-59
2023/12/31 09:52:55;;;;;;;;;;;;;;;16.62;36.37;94807.78;10445102;28;2043;-59
2023/12/31 09:57:56;;;;;;;;;;;;;;;16.62;36.21;94802.56;10454262;28;7805;-59
2023/12/31 10:02:56;;;;;;;;;;;;;;;16.60;36.34;94797.63;10452327;28;2054;-59
2023/12/31 10:07:56;;;;;;;;;;;;;;;16.61;36.19;94790.56;10455149;28;1978;-59
2023/12/31 10:12:56;;;;;;;;;;;;;;;16.58;36.30;94797.09;10449598;28;2029;-60
2023/12/31 10:17:59;;;;;;;;;;;;;;;16.59;36.22;94796.03;10452767;28;2436;-59
2023/12/31 10:23:01;;;;;;;;;;;;;;;16.56;36.12;94790.56;10454608;28;2141;-59
2023/12/31 10:28:01;;;;;;;;;;;;;;;16.57;36.15;94794.75;10453039;28;2058;-59
2023/12/31 10:33:08;;;;;;;;;;;;;;;16.56;36.14;94853.34;10435058;28;2103;-60
2023/12/31 10:38:08;;;;;;;;;;;;;;;16.56;36.10;94840.28;10441904;28;1888;-59
2023/12/31 10:43:12;;;;;;;;;;;;;;;16.55;36.25;94833.50;10449756;28;2055;-59
2023/12/31 10:48:12;;;;;;;;;;;;;;;16.55;36.03;94809.94;10437250;28;2065;-59
2023/12/31 10:53:12;;;;;;;;;;;;;;;16.54;36.04;94819.63;10454766;28;2026;-57
2023/12/31 10:58:13;;;;;;;;;;;;;;;16.54;36.06;94800.53;10434876;28;6157;-59
2023/12/31 11:03:13;;;;;;;;;;;;;;;16.53;36.13;94784.03;10437016;28;2070;-59
2023/12/31 11:08:14;;;;;;;;;;;;;;;16.54;36.12;94767.31;10441171;28;2023;-59
2023/12/31 11:13:14;;;;;;;;;;;;;;;16.54;36.18;94763.91;10446928;28;1962;-59
2023/12/31 11:18:17;;;;;;;;;;;;;;;16.53;36.26;94757.09;10438974;28;1962;-59
2023/12/31 11:23:29;;;;;;;;;;;;;;;16.53;36.27;94746.63;10444639;28;2102;-59
2023/12/31 11:28:29;;;;;;;;;;;;;;;16.54;36.30;94740.34;10421561;28;2300;-59
2023/12/31 11:33:32;;;;;;;;;;;;;;;16.52;36.30;94732.78;10450656;28;1970;-59
2023/12/31 11:38:52;;;;;;;;;;;;;;;16.54;36.27;94729.88;10451307;28;2095;-59
2023/12/31 11:43:52;;;;;;;;;;;;;;;16.54;36.33;94709.75;10453481;28;2729;-61
2023/12/31 11:48:55;;;;;;;;;;;;;;;16.54;36.41;94701.13;10453039;28;2061;-61
2023/12/31 11:53:56;;;;;;;;;;;;;;;16.53;36.59;94687.25;10443467;28;1927;-61
2023/12/31 11:58:56;;;;;;;;;;;;;;;16.54;36.34;94677.56;10448391;28;4934;-61
2023/12/31 12:03:57;;;;;;;;;;;;;;;16.54;36.45;94667.91;10453990;28;1985;-61
2023/12/31 12:08:57;;;;;;;;;;;;;;;16.54;36.48;94654.81;10459176;28;2024;-61
2023/12/31 12:13:58;;;;;;;;;;;;;;;16.54;36.42;94633.09;10450749;28;2016;-61
2023/12/31 12:19:04;;;;;;;;;;;;;;;16.54;36.38;94638.34;10451818;28;1907;-61
2023/12/31 12:24:05;;;;;;;;;;;;;;;16.54;36.59;94625.25;10452018;28;2277;-61
2023/12/31 12:29:07;;;;;;;;;;;;;;;16.53;36.53;94613.22;10441643;28;1979;-60
2023/12/31 12:34:08;;;;;;;;;;;;;;;16.53;36.50;94608.75;10449978;28;2207;-60
2023/12/31 12:39:20;;;;;;;;;;;;;;;16.52;36.50;94598.59;10448195;28;1975;-61
2023/12/31 12:44:23;;;;;;;;;;;;;;;16.51;36.57;94592.56;10465983;28;1862;-60
2023/12/31 12:49:23;;;;;;;;;;;;;;;16.52;36.41;94609.84;10462702;28;2179;-60
2023/12/31 12:54:23;;;;;;;;;;;;;;;16.52;36.36;94617.69;10463271;28;2224;-60
2023/12/31 12:59:24;;;;;;;;;;;;;;;16.52;36.45;94603.81;10462697;28;5016;-60
2023/12/31 13:04:24;;;;;;;;;;;;;;;16.52;36.50;94595.97;10463198;28;2263;-60
2023/12/31 13:09:25;;;;;;;;;;;;;;;16.50;36.51;94585.78;10468496;28;2041;-60
2023/12/31 13:14:25;;;;;;;;;;;;;;;16.50;36.44;94577.94;10465414;28;1937;-61
2023/12/31 13:19:25;;;;;;;;;;;;;;;16.50;36.40;94577.94;10457857;28;2098;-61
2023/12/31 13:24:25;;;;;;;;;;;;;;;16.50;36.51;94569.31;10441819;28;2236;-61
2023/12/31 13:29:26;;;;;;;;;;;;;;;16.49;36.39;94562.47;10460868;28;2049;-61
2023/12/31 13:34:26;;;;;;;;;;;;;;;16.48;36.45;94548.63;10450722;28;2020;-61
2023/12/31 13:39:26;;;;;;;;;;;;;;;16.47;36.42;94546.28;10464428;28;2194;-61
2023/12/31 13:44:27;;;;;;;;;;;;;;;16.47;36.46;94527.97;10455290;28;2072;-61
2023/12/31 13:49:27;;;;;;;;;;;;;;;16.47;36.39;94523.53;10461293;28;2440;-61
2023/12/31 13:54:28;;;;;;;;;;;;;;;16.47;36.51;94514.88;10455047;28;1978;-61
2023/12/31 13:59:28;;;;;;;;;;;;;;;16.47;36.47;94517.50;10455249;28;4918;-61
2023/12/31 14:04:28;;;;;;;;;;;;;;;16.47;36.59;94501.81;10460301;28;1889;-61
2023/12/31 14:09:29;;;;;;;;;;;;;;;16.47;36.70;94501.81;10457945;28;3872;-60
2023/12/31 14:14:29;;;;;;;;;;;;;;;16.48;36.76;94487.69;10459042;28;1941;-61
2023/12/31 14:19:30;;;;;;;;;;;;;;;16.48;37.04;94495.53;10461104;28;2066;-60
2023/12/31 14:24:32;;;;;;;;;;;;;;;16.49;36.97;94484.00;10446298;28;2054;-61
2023/12/31 14:29:33;;;;;;;;;;;;;;;16.49;37.16;94499.69;10452774;28;2049;-60
2023/12/31 14:34:33;;;;;;;;;;;;;;;16.49;37.03;94513.59;10454124;28;1962;-61
2023/12/31 14:39:34;;;;;;;;;;;;;;;16.47;37.16;94547.06;10460154;28;2068;-61
2023/12/31 14:44:34;;;;;;;;;;;;;;;16.47;37.05;94593.34;10456028;28;2251;-61
2023/12/31 14:49:35;;;;;;;;;;;;;;;16.45;37.08;94601.47;10461629;28;2373;-61
2023/12/31 14:54:35;;;;;;;;;;;;;;;16.45;37.13;94613.78;10456436;28;1933;-61
2023/12/31 14:59:36;;;;;;;;;;;;;;;16.44;36.92;94633.94;10462751;28;5098;-60
2023/12/31 15:04:36;;;;;;;;;;;;;;;16.43;36.89;94637.59;10456017;28;2131;-60
2023/12/31 15:09:39;;;;;;;;;;;;;;;16.42;36.88;94632.66;10457599;28;1980;-59
2023/12/31 15:14:39;;;;;;;;;;;;;;;16.42;36.81;94656.19;10455939;28;1875;-61
2023/12/31 15:19:39;;;;;;;;;;;;;;;16.41;36.70;94665.84;10460177;28;2073;-60
2023/12/31 15:24:39;;;;;;;;;;;;;;;16.40;36.70;94680.00;10459966;28;2070;-59
2023/12/31 15:29:40;;;;;;;;;;;;;;;16.40;36.59;94681.84;10453426;28;2144;-61
2023/12/31 15:34:40;;;;;;;;;;;;;;;16.40;36.61;94679.22;10459520;28;1950;-60
2023/12/31 15:39:41;;;;;;;;;;;;;;;16.38;36.52;94684.72;10454345;28;2408;-61
2023/12/31 15:44:41;;;;;;;;;;;;;;;16.40;36.55;94692.28;10450894;28;2108;-60
2023/12/31 15:49:41;;;;;;;;;;;;;;;16.39;36.54;94698.56;10455938;28;2011;-61
2023/12/31 15:54:42;;;;;;;;;;;;;;;16.39;36.36;94704.59;10454392;28;2065;-60
2023/12/31 15:59:43;;;;;;;;;;;;;;;16.39;36.34;94703.78;10450114;28;4931;-61
2023/12/31 16:04:45;;;;;;;;;;;;;;;16.39;36.34;94724.72;10462333;28;1972;-60
2023/12/31 16:09:45;;;;;;;;;;;;;;;16.39;36.49;94743.03;10445008;28;1936;-60
2023/12/31 16:14:48;;;;;;;;;;;;;;;16.39;36.45;94753.47;10462718;28;1996;-61
2023/12/31 16:19:48;;;;;;;;;;;;;;;16.38;36.39;94754.56;10462870;28;2048;-61
2023/12/31 16:24:49;;;;;;;;;;;;;;;16.38;36.33;94780.72;10456746;28;2242;-61
2023/12/31 16:29:49;;;;;;;;;;;;;;;16.36;36.42;94786.22;10459247;28;2456;-61
2023/12/31 16:34:49;;;;;;;;;;;;;;;16.36;36.45;94796.69;10461264;28;2252;-60
2023/12/31 16:39:49;;;;;;;;;;;;;;;16.37;36.38;94811.31;10464064;28;1958;-61
2023/12/31 16:44:50;;;;;;;;;;;;;;;16.35;36.36;94810.78;10459618;28;2020;-61
2023/12/31 16:49:50;;;;;;;;;;;;;;;16.35;36.33;94813.41;10465087;28;2120;-61
2023/12/31 16:54:50;;;;;;;;;;;;;;;16.35;36.33;94823.88;10464639;28;1969;-61
2023/12/31 16:59:50;;;;;;;;;;;;;;;16.36;36.35;94845.56;10460634;28;5054;-61
2023/12/31 17:04:51;;;;;;;;;;;;;;;16.35;36.17;94846.63;10463186;28;1974;-60
2023/12/31 17:09:51;;;;;;;;;;;;;;;16.34;36.29;94858.94;10462400;28;1973;-61
2023/12/31 17:14:51;;;;;;;;;;;;;;;16.33;36.14;94857.34;10460180;28;1890;-61
2023/12/31 17:19:51;;;;;;;;;;;;;;;16.34;36.37;94863.38;10464227;28;2096;-61
2023/12/31 17:24:52;;;;;;;;;;;;;;;16.33;36.13;94865.19;10463159;28;2087;-61
2023/12/31 17:29:52;;;;;;;;;;;;;;;16.35;36.05;94870.16;10465067;28;1942;-61
2023/12/31 17:34:52;;;;;;;;;;;;;;;16.33;36.11;94877.47;10464922;28;2280;-60
2023/12/31 17:39:52;;;;;;;;;;;;;;;16.32;36.12;94878.53;10465859;28;1956;-61
2023/12/31 17:44:53;;;;;;;;;;;;;;;16.33;36.18;94893.16;10462345;28;1920;-61
2023/12/31 17:49:53;;;;;;;;;;;;;;;16.32;36.07;94896.84;10461402;28;1981;-61
2023/12/31 17:54:54;;;;;;;;;;;;;;;16.30;36.11;94903.13;10453773;28;1943;-60
2023/12/31 17:59:54;;;;;;;;;;;;;;;16.30;36.07;94916.19;10458005;28;6174;-60
2023/12/31 18:04:55;;;;;;;;;;;;;;;16.30;36.07;94916.19;10458304;28;1937;-60
2023/12/31 18:09:56;;;;;;;;;;;;;;;16.30;36.07;94916.19;10462100;28;1966;-61
2023/12/31 18:14:56;;;;;;;;;;;;;;;16.30;36.11;94921.41;10456885;28;2397;-61
2023/12/31 18:19:57;;;;;;;;;;;;;;;16.29;36.05;94930.34;10457722;28;2100;-60
2023/12/31 18:24:57;;;;;;;;;;;;;;;16.30;36.00;94936.31;10446517;28;1872;-60
2023/12/31 18:29:57;;;;;;;;;;;;;;;16.29;35.90;94946.03;10459824;28;2021;-59
2023/12/31 18:34:57;;;;;;;;;;;;;;;16.28;36.05;94947.06;10467303;28;1911;-60
2023/12/31 18:39:58;;;;;;;;;;;;;;;16.28;36.10;94954.13;10457580;28;1930;-60
2023/12/31 18:44:58;;;;;;;;;;;;;;;16.27;35.98;94955.97;10453948;28;2018;-59
2023/12/31 18:49:58;;;;;;;;;;;;;;;16.28;36.00;94952.28;10444682;28;2287;-60
2023/12/31 18:54:58;;;;;;;;;;;;;;;16.27;36.05;94953.34;10458148;28;2128;-60
2023/12/31 18:59:59;;;;;;;;;;;;;;;16.27;36.08;94937.66;10452199;28;5021;-60
2023/12/31 19:04:59;;;;;;;;;;;;;;;16.27;36.06;94936.88;10458514;28;2055;-60
2023/12/31 19:09:59;;;;;;;;;;;;;;;16.26;35.97;94930.84;10460100;28;2057;-60
2023/12/31 19:15:02;;;;;;;;;;;;;;;16.26;36.02;94937.91;10454210;28;1985;-60
2023/12/31 19:20:03;;;;;;;;;;;;;;;16.25;35.97;94938.97;10451505;28;2060;-60
2023/12/31 19:25:03;;;;;;;;;;;;;;;16.24;36.01;94935.56;10458591;28;2065;-60
2023/12/31 19:30:05;;;;;;;;;;;;;;;16.23;36.06;94941.84;10459079;28;1968;-60
2023/12/31 19:35:05;;;;;;;;;;;;;;;16.23;36.08;94951.53;10459459;28;2052;-60
2023/12/31 19:40:06;;;;;;;;;;;;;;;16.22;36.04;94965.63;10455917;28;2632;-60
2023/12/31 19:45:06;;;;;;;;;;;;;;;16.22;36.00;94955.16;10441216;28;2084;-60
2023/12/31 19:50:06;;;;;;;;;;;;;;;16.22;36.00;94955.16;10461982;28;1965;-60
2023/12/31 19:55:08;;;;;;;;;;;;;;;16.21;35.93;94949.19;10455235;28;2116;-60
2023/12/31 20:00:08;;;;;;;;;;;;;;;16.22;36.07;94955.16;10452934;28;5061;-60
2023/12/31 20:05:08;;;;;;;;;;;;;;;16.21;36.04;94948.38;10457486;28;2001;-59
2023/12/31 20:10:09;;;;;;;;;;;;;;;16.20;36.00;94937.13;10451838;28;1980;-60
2023/12/31 20:15:09;;;;;;;;;;;;;;;16.20;36.00;94926.69;10457714;28;2038;-60
2023/12/31 20:20:10;;;;;;;;;;;;;;;16.19;35.92;94925.13;10451554;28;2692;-59
2023/12/31 20:25:10;;;;;;;;;;;;;;;16.20;36.01;94938.97;10446816;28;1968;-59
2023/12/31 20:30:11;;;;;;;;;;;;;;;16.19;35.94;94956.50;10450856;28;2054;-60
2023/12/31 20:35:11;;;;;;;;;;;;;;;16.19;35.92;94953.09;10459828;28;2330;-59
2023/12/31 20:40:11;;;;;;;;;;;;;;;16.18;36.02;94959.38;10455214;28;2005;-60
2023/12/31 20:45:16;;;;;;;;;;;;;;;16.18;36.02;94969.81;10444739;28;2005;-59
2023/12/31 20:50:17;;;;;;;;;;;;;;;16.18;36.09;94954.13;10458260;28;1977;-60
2023/12/31 20:55:17;;;;;;;;;;;;;;;16.16;36.01;94954.41;10461715;28;1882;-60
2023/12/31 21:00:17;;;;;;;;;;;;;;;16.16;36.01;94954.41;10469532;28;4986;-59
2023/12/31 21:05:18;;;;;;;;;;;;;;;16.16;35.96;94948.38;10448774;28;2541;-60
2023/12/31 21:10:18;;;;;;;;;;;;;;;16.16;36.05;94937.94;10461580;28;2103;-59
2023/12/31 21:15:18;;;;;;;;;;;;;;;16.16;36.07;94946.56;10460664;28;2165;-60
2023/12/31 21:20:19;;;;;;;;;;;;;;;16.15;35.94;94958.09;10459040;28;1902;-60
2023/12/31 21:25:21;;;;;;;;;;;;;;;16.13;35.97;94952.34;10449162;28;2014;-59
2023/12/31 21:30:22;;;;;;;;;;;;;;;16.14;35.99;94963.56;10464735;28;2263;-60
2023/12/31 21:35:22;;;;;;;;;;;;;;;16.14;36.08;94963.56;10461434;28;1873;-60
2023/12/31 21:40:22;;;;;;;;;;;;;;;16.12;36.12;94958.59;10456987;28;1906;-59
2023/12/31 21:45:22;;;;;;;;;;;;;;;16.13;35.97;94962.00;10463139;28;2754;-60
2023/12/31 21:50:23;;;;;;;;;;;;;;;16.12;36.13;94947.34;10459733;28;1963;-59
2023/12/31 21:55:23;;;;;;;;;;;;;;;16.10;36.16;94942.41;10455841;28;2025;-59
2023/12/31 22:00:25;;;;;;;;;;;;;;;16.10;36.10;94950.25;10458010;28;2007;-59
2023/12/31 22:05:26;;;;;;;;;;;;;;;16.09;36.06;94950.50;10463147;28;2031;-61
2023/12/31 22:10:26;;;;;;;;;;;;;;;16.10;36.08;94952.84;10461238;28;1981;-59
2023/12/31 22:15:29;;;;;;;;;;;;;;;16.08;36.09;94965.41;10457382;28;2112;-59
2023/12/31 22:20:29;;;;;;;;;;;;;;;16.08;36.14;94975.88;10454324;28;2114;-59
2023/12/31 22:25:29;;;;;;;;;;;;;;;16.09;36.14;94993.09;10455620;28;1989;-59
2023/12/31 22:30:30;;;;;;;;;;;;;;;16.07;36.12;94995.19;10453764;28;2629;-59
2023/12/31 22:35:30;;;;;;;;;;;;;;;16.07;36.13;94986.59;10463074;28;1930;-60
2023/12/31 22:40:31;;;;;;;;;;;;;;;16.07;36.02;94989.19;10455071;28;2072;-59
2023/12/31 22:45:31;;;;;;;;;;;;;;;16.05;36.20;94984.22;10456988;28;1960;-59
2023/12/31 22:50:31;;;;;;;;;;;;;;;16.05;36.11;94993.91;10461419;28;2120;-59
2023/12/31 22:55:32;;;;;;;;;;;;;;;16.05;36.22;94980.84;10461676;28;2057;-59
2023/12/31 23:00:32;;;;;;;;;;;;;;;16.04;36.14;94987.09;10453425;28;5002;-59
2023/12/31 23:05:32;;;;;;;;;;;;;;;16.04;36.15;94979.25;10464110;28;1899;-60
2023/12/31 23:10:33;;;;;;;;;;;;;;;16.02;36.19;94987.38;10459739;28;2268;-59
2023/12/31 23:15:34;;;;;;;;;;;;;;;16.03;36.25;94982.94;10458968;28;2223;-59
2023/12/31 23:20:34;;;;;;;;;;;;;;;16.02;36.15;94978.75;10454909;28;2743;-56
2023/12/31 23:25:34;;;;;;;;;;;;;;;16.02;36.20;94986.56;10457201;28;2100;-60
2023/12/31 23:30:34;;;;;;;;;;;;;;;16.01;36.21;94980.56;10458471;28;2201;-59
2023/12/31 23:35:37;;;;;;;;;;;;;;;16.00;36.04;94975.59;10458041;28;1918;-58
2023/12/31 23:40:37;;;;;;;;;;;;;;;15.99;36.10;94987.88;10438205;28;1970;-59
2023/12/31 23:45:38;;;;;;;;;;;;;;;15.98;36.20;94975.88;10459346;28;1910;-59
2023/12/31 23:50:38;;;;;;;;;;;;;;;15.98;36.11;94975.88;10456335;28;1979;-59
2023/12/31 23:55:38;;;;;;;;;;;;;;;15.99;36.32;94985.28;10438243;28;1955;-60
